Time;durP1;ratioP1;P1;durP2;ratioP2;P2;SDS_P1;SDS_P2;PMS_P1;PMS_P2;Temp;Humidity;BMP_temperature;BMP_pressure;BME280_temperature;BME280_humidity;BME280_pressure;Samples;Min_cycle;Max_cycle;Signal;HPM_P1;HPM_P2
2024/01/27 00:02:16;;;;;;;1.53;1.37;;;7.50;99.90;;;;;;5031954;28;20295;-66
2024/01/27 00:04:43;;;;;;;1.33;1.30;;;7.50;99.90;;;;;;5021567;28;20205;-66
2024/01/27 00:07:14;;;;;;;3.53;1.93;;;;;;;;;;5021299;28;20280;-66
2024/01/27 00:09:41;;;;;;;1.37;1.30;;;6.90;99.90;;;;;;5022476;28;20203;-65
2024/01/27 00:12:09;;;;;;;2.53;1.63;;;7.60;99.90;;;;;;5029657;28;20258;-66
2024/01/27 00:14:40;;;;;;;2.03;1.83;;;;;;;;;;5030923;28;20211;-65
2024/01/27 00:17:07;;;;;;;2.33;1.40;;;;;;;;;;5030793;28;20241;-66
2024/01/27 00:19:34;;;;;;;1.23;1.13;;;;;;;;;;5021878;28;20200;-67
2024/01/27 00:22:02;;;;;;;2.50;1.47;;;;;;;;;;5018153;28;20268;-66
2024/01/27 00:24:29;;;;;;;1.20;1.20;;;;;;;;;;5003084;28;20781;-66
2024/01/27 00:26:56;;;;;;;1.10;1.10;;;;;;;;;;5010535;28;20279;-65
2024/01/27 00:29:25;;;;;;;3.23;1.33;;;;;;;;;;5011304;28;20259;-66
2024/01/27 00:31:54;;;;;;;1.20;1.10;;;;;;;;;;5012939;28;20200;-67
2024/01/27 00:34:21;;;;;;;2.07;0.70;;;;;;;;;;5022266;28;20229;-66
2024/01/27 00:36:49;;;;;;;2.87;0.60;;;;;;;;;;5022152;28;20225;-67
2024/01/27 00:39:17;;;;;;;0.77;0.77;;;;;;;;;;5002661;28;20202;-67
2024/01/27 00:41:44;;;;;;;2.93;1.20;;;;;;;;;;4993686;28;20582;-67
2024/01/27 00:44:11;;;;;;;1.87;1.37;;;;;;;;;;5010445;28;20224;-64
2024/01/27 00:46:40;;;;;;;0.80;0.80;;;;;;;;;;5025754;28;20223;-67
2024/01/27 00:49:07;;;;;;;1.20;0.70;;;;;;;;;;5024592;28;20771;-66
2024/01/27 00:51:34;;;;;;;2.57;0.90;;;;;;;;;;5013624;28;20209;-67
2024/01/27 00:54:02;;;;;;;0.70;0.70;;;;;;;;;;5014316;28;20267;-67
2024/01/27 00:56:29;;;;;;;0.97;0.67;;;;;;;;;;5020798;28;20220;-66
2024/01/27 00:58:56;;;;;;;1.53;0.87;;;;;;;;;;5026430;28;20270;-66
2024/01/27 01:01:23;;;;;;;0.70;0.70;;;;;;;;;;5033216;28;20213;-66
2024/01/27 01:03:52;;;;;;;1.43;0.73;;;;;;;;;;5033594;28;20704;-67
2024/01/27 01:06:19;;;;;;;1.40;0.70;;;7.10;99.90;;;;;;5029241;28;20208;-69
2024/01/27 01:08:46;;;;;;;4.43;0.77;;;;;;;;;;5022068;28;20660;-67
2024/01/27 01:11:14;;;;;;;1.87;0.97;;;7.00;99.90;;;;;;5023512;28;20204;-66
2024/01/27 01:13:41;;;;;;;1.80;1.10;;;;;;;;;;5031555;28;20204;-66
2024/01/27 01:16:09;;;;;;;0.80;0.80;;;;;;;;;;5033391;28;20208;-66
2024/01/27 01:18:36;;;;;;;1.03;1.00;;;;;;;;;;5033451;28;20218;-66
2024/01/27 01:21:05;;;;;;;0.60;0.60;;;;;;;;;;5028457;28;20204;-67
2024/01/27 01:23:32;;;;;;;1.03;0.70;;;7.00;99.90;;;;;;5024059;28;20224;-66
2024/01/27 01:25:59;;;;;;;1.30;0.90;;;;;;;;;;5022696;28;20198;-67
2024/01/27 01:28:27;;;;;;;1.40;1.30;;;;;;;;;;5007455;28;20660;-67
2024/01/27 01:30:54;;;;;;;0.80;0.80;;;6.90;99.90;;;;;;5013470;28;20263;-66
2024/01/27 01:33:22;;;;;;;0.53;0.53;;;;;;;;;;5011784;28;20201;-67
2024/01/27 01:35:49;;;;;;;3.20;1.13;;;;;;;;;;5024571;28;20200;-67
2024/01/27 01:38:18;;;;;;;0.67;0.60;;;;;;;;;;5033200;28;20306;-67
2024/01/27 01:40:45;;;;;;;0.60;0.60;;;;;;;;;;5032444;28;20205;-66
2024/01/27 01:43:12;;;;;;;1.90;0.97;;;;;;;;;;5019462;28;20279;-67
2024/01/27 01:45:40;;;;;;;1.43;0.63;;;;;;;;;;5011167;28;20287;-67
2024/01/27 01:48:07;;;;;;;0.83;0.83;;;;;;;;;;5025780;28;20287;-67
2024/01/27 01:50:34;;;;;;;0.70;0.40;;;;;;;;;;5017144;28;20734;-66
2024/01/27 01:53:02;;;;;;;2.03;0.73;;;;;;;;;;5015089;28;20258;-67
2024/01/27 01:55:31;;;;;;;3.13;1.17;;;;;;;;;;5014684;28;20636;-67
2024/01/27 01:57:58;;;;;;;0.87;0.70;;;;;;;;;;5019954;28;20740;-67
2024/01/27 02:00:25;;;;;;;1.70;0.60;;;;;;;;;;5013069;28;20257;-66
2024/01/27 02:02:53;;;;;;;0.67;0.63;;;;;;;;;;5012004;28;20205;-66
2024/01/27 02:05:20;;;;;;;2.47;0.77;;;;;;;;;;5019239;28;20572;-66
2024/01/27 02:07:47;;;;;;;0.77;0.40;;;;;;;;;;5019842;28;20294;-66
2024/01/27 02:10:15;;;;;;;0.90;0.40;;;;;;;;;;5026929;28;20699;-66
2024/01/27 02:12:44;;;;;;;0.67;0.50;;;;;;;;;;5031588;28;20259;-66
2024/01/27 02:15:13;;;;;;;1.53;0.70;;;;;;;;;;5032454;28;20263;-66
2024/01/27 02:17:40;;;;;;;2.67;0.70;;;;;;;;;;5028585;28;20339;-66
2024/01/27 02:20:08;;;;;;;1.03;0.57;;;;;;;;;;5012727;28;20209;-66
2024/01/27 02:22:36;;;;;;;1.47;1.07;;;;;;;;;;5011891;28;20209;-67
2024/01/27 02:25:05;;;;;;;5.27;1.53;;;;;;;;;;5011476;28;20288;-66
2024/01/27 02:27:32;;;;;;;0.70;0.70;;;;;;;;;;5010548;28;20319;-67
2024/01/27 02:29:59;;;;;;;1.10;1.07;;;6.90;99.90;;;;;;5015278;28;20262;-67
2024/01/27 02:32:26;;;;;;;1.20;1.10;;;;;;;;;;5023077;28;20201;-66
2024/01/27 02:34:54;;;;;;;0.70;0.70;;;;;;;;;;5032257;28;20253;-66
2024/01/27 02:37:21;;;;;;;0.90;0.90;;;;;;;;;;5018091;28;20253;-66
2024/01/27 02:39:48;;;;;;;3.13;1.30;;;;;;;;;;5012038;28;20274;-67
2024/01/27 02:42:18;;;;;;;1.10;1.10;;;;;;;;;;5010992;28;20255;-68
2024/01/27 02:44:45;;;;;;;0.77;0.77;;;;;;;;;;5022648;28;20273;-67
2024/01/27 02:47:15;;;;;;;1.63;1.37;;;;;;;;;;5032898;28;20224;-67
2024/01/27 02:49:42;;;;;;;1.30;1.03;;;;;;;;;;5031262;28;20212;-67
2024/01/27 02:52:13;;;;;;;2.53;1.03;;;;;;;;;;4992177;28;20210;-68
2024/01/27 02:54:41;;;;;;;3.37;1.20;;;;;;;;;;5001683;28;20237;-66
2024/01/27 02:57:07;;;;;;;0.60;0.60;;;;;;;;;;5020495;28;20229;-66
2024/01/27 02:59:36;;;;;;;0.70;0.70;;;;;;;;;;5013296;28;20203;-67
2024/01/27 03:02:03;;;;;;;0.70;0.70;;;;;;;;;;5011240;28;20267;-67
2024/01/27 03:04:30;;;;;;;0.57;0.57;;;;;;;;;;5011679;28;20224;-66
2024/01/27 03:06:58;;;;;;;1.07;0.80;;;;;;;;;;5016824;28;20604;-67
2024/01/27 03:09:25;;;;;;;1.20;0.90;;;;;;;;;;5022696;28;20669;-67
2024/01/27 03:11:52;;;;;;;1.67;1.03;;;;;;;;;;5030796;28;20215;-66
2024/01/27 03:14:19;;;;;;;1.13;0.80;;;;;;;;;;5028970;28;20208;-66
2024/01/27 03:16:48;;;;;;;0.87;0.87;;;;;;;;;;5031720;28;20236;-67
2024/01/27 03:19:15;;;;;;;2.37;1.00;;;;;;;;;;5026787;28;20205;-66
2024/01/27 03:21:43;;;;;;;1.37;1.13;;;;;;;;;;5022883;28;20250;-67
2024/01/27 03:24:10;;;;;;;1.17;1.00;;;;;;;;;;5011975;28;20276;-66
2024/01/27 03:26:37;;;;;;;0.80;0.80;;;;;;;;;;5019401;28;20220;-67
2024/01/27 03:29:04;;;;;;;2.83;0.80;;;;;;;;;;5023653;28;20680;-67
2024/01/27 03:31:32;;;;;;;3.30;1.03;;;;;;;;;;5015645;28;20596;-66
2024/01/27 03:34:01;;;;;;;2.40;1.00;;;;;;;;;;5026459;28;20283;-67
2024/01/27 03:36:28;;;;;;;0.90;0.90;;;;;;;;;;5031540;28;20278;-66
2024/01/27 03:38:57;;;;;;;0.80;0.80;;;;;;;;;;5016572;28;20712;-66
2024/01/27 03:41:24;;;;;;;2.33;1.03;;;;;;;;;;5011126;28;20634;-66
2024/01/27 03:43:51;;;;;;;2.20;0.90;;;;;;;;;;5010756;28;20217;-67
2024/01/27 03:46:18;;;;;;;1.33;1.10;;;;;;;;;;5019688;28;20264;-67
2024/01/27 03:48:46;;;;;;;2.87;1.50;;;;;;;;;;5030397;28;20818;-67
2024/01/27 03:51:14;;;;;;;1.80;1.00;;;;;;;;;;5025815;28;20204;-66
2024/01/27 03:53:41;;;;;;;2.77;1.13;;;6.20;99.90;;;;;;4992085;28;20201;-67
2024/01/27 03:56:12;;;;;;;3.50;1.70;;;6.30;99.90;;;;;;4996008;28;20312;-67
2024/01/27 03:58:39;;;;;;;3.27;1.10;;;6.30;99.90;;;;;;5019479;28;20205;-67
2024/01/27 04:01:06;;;;;;;1.10;0.73;;;6.30;99.90;;;;;;5031784;28;20295;-67
2024/01/27 04:03:33;;;;;;;4.27;0.97;;;6.20;99.90;;;;;;5031064;28;20258;-67
2024/01/27 04:06:02;;;;;;;0.97;0.97;;;6.50;99.90;;;;;;5031377;28;20620;-67
2024/01/27 04:08:30;;;;;;;1.40;1.30;;;6.30;99.90;;;;;;5016941;28;20943;-66
2024/01/27 04:10:57;;;;;;;2.70;1.37;;;6.50;99.90;;;;;;5020103;28;20672;-67
2024/01/27 04:13:24;;;;;;;2.67;1.00;;;;;;;;;;5030267;28;20202;-67
2024/01/27 04:15:53;;;;;;;2.20;1.33;;;6.70;99.90;;;;;;5035152;28;20213;-67
2024/01/27 04:18:20;;;;;;;2.27;0.90;;;6.40;99.90;;;;;;5034941;28;20230;-67
2024/01/27 04:20:48;;;;;;;3.37;0.90;;;6.40;99.90;;;;;;5035078;28;20262;-67
2024/01/27 04:23:15;;;;;;;1.73;1.00;;;6.40;99.90;;;;;;5022067;28;20204;-67
2024/01/27 04:25:44;;;;;;;1.17;1.03;;;6.40;99.90;;;;;;5025509;28;20304;-67
2024/01/27 04:28:12;;;;;;;1.80;0.93;;;6.40;99.90;;;;;;5029529;28;20234;-67
2024/01/27 04:30:39;;;;;;;2.13;1.23;;;;;;;;;;5015065;28;20258;-67
2024/01/27 04:33:07;;;;;;;1.87;1.13;;;6.60;99.90;;;;;;5014116;28;20209;-67
2024/01/27 04:35:34;;;;;;;3.43;1.80;;;6.50;99.90;;;;;;5022124;28;20197;-67
2024/01/27 04:38:01;;;;;;;4.50;2.00;;;;;;;;;;5027521;28;20303;-67
2024/01/27 04:40:29;;;;;;;3.10;1.33;;;6.30;99.90;;;;;;5028215;28;20283;-67
2024/01/27 04:42:58;;;;;;;1.47;1.37;;;6.40;99.90;;;;;;5014383;28;20290;-67
2024/01/27 04:45:25;;;;;;;1.37;1.23;;;;;;;;;;5014917;28;20253;-67
2024/01/27 04:47:53;;;;;;;1.90;1.80;;;;;;;;;;5018122;28;20231;-67
2024/01/27 04:50:20;;;;;;;1.37;1.20;;;;;;;;;;5019394;28;20205;-67
2024/01/27 04:52:47;;;;;;;1.70;1.47;;;;;;;;;;5013832;28;20213;-67
2024/01/27 04:55:15;;;;;;;5.43;1.87;;;;;;;;;;5014637;28;20743;-67
2024/01/27 04:57:42;;;;;;;3.47;1.87;;;;;;;;;;5025316;28;20231;-67
2024/01/27 05:00:12;;;;;;;2.83;1.50;;;;;;;;;;5023044;28;20644;-67
2024/01/27 05:02:40;;;;;;;1.17;1.07;;;;;;;;;;5025172;28;20684;-66
2024/01/27 05:05:08;;;;;;;4.93;1.37;;;;;;;;;;5034202;28;20224;-67
2024/01/27 05:07:35;;;;;;;1.80;1.63;;;;;;;;;;5034003;28;20371;-67
2024/01/27 05:10:02;;;;;;;0.97;0.97;;;;;;;;;;5023636;28;20202;-67
2024/01/27 05:12:30;;;;;;;4.23;1.70;;;;;;;;;;5012587;28;20223;-67
2024/01/27 05:14:57;;;;;;;4.70;1.47;;;;;;;;;;5010607;28;20197;-67
2024/01/27 05:17:25;;;;;;;1.80;1.50;;;;;;;;;;5009473;28;20241;-67
2024/01/27 05:19:53;;;;;;;3.27;1.57;;;;;;;;;;5009082;28;20196;-67
2024/01/27 05:22:20;;;;;;;1.43;1.33;;;;;;;;;;5011788;28;20264;-67
2024/01/27 05:24:47;;;;;;;3.77;1.90;;;;;;;;;;5012276;28;20623;-67
2024/01/27 05:27:14;;;;;;;1.87;1.77;;;;;;;;;;5013556;28;20229;-67
2024/01/27 05:29:42;;;;;;;3.27;2.10;;;;;;;;;;5008767;28;20201;-67
2024/01/27 05:32:09;;;;;;;1.77;1.67;;;;;;;;;;5013027;28;20271;-67
2024/01/27 05:34:37;;;;;;;1.83;1.57;;;;;;;;;;5013459;28;20202;-67
2024/01/27 05:37:05;;;;;;;4.53;2.00;;;;;;;;;;5011695;28;20222;-67
2024/01/27 05:39:33;;;;;;;4.10;2.30;;;;;;;;;;5010814;28;20205;-67
2024/01/27 05:42:01;;;;;;;2.90;2.67;;;;;;;;;;5012701;28;20239;-67
2024/01/27 05:44:28;;;;;;;4.13;3.23;;;;;;;;;;5012891;28;20221;-67
2024/01/27 05:46:56;;;;;;;3.70;3.50;;;;;;;;;;5013342;28;20274;-67
2024/01/27 05:49:23;;;;;;;5.37;4.77;;;;;;;;;;5013518;28;20271;-67
2024/01/27 05:51:52;;;;;;;7.87;5.47;;;;;;;;;;5012601;28;20615;-67
2024/01/27 05:54:19;;;;;;;8.70;5.23;;;;;;;;;;5013337;28;20363;-67
2024/01/27 05:56:46;;;;;;;5.57;5.07;;;;;;;;;;5013288;28;20225;-67
2024/01/27 05:59:13;;;;;;;9.97;5.87;;;;;;;;;;5012842;28;20204;-67
2024/01/27 06:01:43;;;;;;;7.37;4.77;;;;;;;;;;5012236;28;20623;-67
2024/01/27 06:04:12;;;;;;;5.30;3.97;;;;;;;;;;5012942;28;20224;-67
2024/01/27 06:06:40;;;;;;;5.90;4.70;;;;;;;;;;5012727;28;20712;-67
2024/01/27 06:09:10;;;;;;;6.93;4.57;;;;;;;;;;5013260;28;20297;-67
2024/01/27 06:11:38;;;;;;;6.90;3.80;;;;;;;;;;5012588;28;20619;-67
2024/01/27 06:14:06;;;;;;;5.33;3.47;;;;;;;;;;5012825;28;20734;-67
2024/01/27 06:16:35;;;;;;;3.20;2.80;;;;;;;;;;5012951;28;20305;-67
2024/01/27 06:19:02;;;;;;;2.97;2.77;;;;;;;;;;5013957;28;20208;-67
2024/01/27 06:21:29;;;;;;;4.03;3.27;;;;;;;;;;5019573;28;20629;-67
2024/01/27 06:23:57;;;;;;;2.53;2.43;;;;;;;;;;5010662;28;20261;-66
2024/01/27 06:26:25;;;;;;;4.93;2.83;;;;;;;;;;5012993;28;20709;-67
2024/01/27 06:28:52;;;;;;;3.07;2.77;;;;;;;;;;5012891;28;20224;-67
2024/01/27 06:31:20;;;;;;;3.00;2.80;;;;;;;;;;5006892;28;20254;-67
2024/01/27 06:33:47;;;;;;;5.63;2.57;;;5.50;99.90;;;;;;5012877;28;20200;-67
2024/01/27 06:36:14;;;;;;;3.13;2.93;;;;;;;;;;5013540;28;20619;-67
2024/01/27 06:38:41;;;;;;;3.90;3.60;;;;;;;;;;5012640;28;20228;-67
2024/01/27 06:41:08;;;;;;;3.90;2.90;;;;;;;;;;5013695;28;20204;-65
2024/01/27 06:43:37;;;;;;;3.80;3.47;;;;;;;;;;5012475;28;20585;-67
2024/01/27 06:46:05;;;;;;;4.20;3.63;;;;;;;;;;5012484;28;20220;-67
2024/01/27 06:48:32;;;;;;;4.73;3.43;;;;;;;;;;5012138;28;20641;-67
2024/01/27 06:50:58;;;;;;;6.00;4.00;;;;;;;;;;5012418;28;20208;-67
2024/01/27 06:53:26;;;;;;;4.87;3.90;;;;;;;;;;5011555;28;20200;-67
2024/01/27 06:55:53;;;;;;;5.50;3.53;;;;;;;;;;5010565;28;20193;-67
2024/01/27 06:58:20;;;;;;;3.93;3.70;;;5.50;99.90;;;;;;5010891;28;20228;-68
2024/01/27 07:00:49;;;;;;;5.10;4.70;;;;;;;;;;5011921;28;20220;-67
2024/01/27 07:03:17;;;;;;;4.60;4.20;;;;;;;;;;5011496;28;20205;-67
2024/01/27 07:05:44;;;;;;;7.83;5.13;;;;;;;;;;5007384;28;20225;-68
2024/01/27 07:08:11;;;;;;;9.07;4.77;;;5.80;99.90;;;;;;5011764;28;20247;-67
2024/01/27 07:10:38;;;;;;;7.67;6.23;;;;;;;;;;5012007;28;20209;-67
2024/01/27 07:13:07;;;;;;;9.27;4.70;;;;;;;;;;5008375;28;20204;-68
2024/01/27 07:15:34;;;;;;;7.60;4.53;;;;;;;;;;5014338;28;20202;-67
2024/01/27 07:18:03;;;;;;;4.00;3.73;;;;;;;;;;5011861;28;20622;-67
2024/01/27 07:20:30;;;;;;;8.73;5.70;;;;;;;;;;5011760;28;20213;-67
2024/01/27 07:22:58;;;;;;;5.80;5.30;;;;;;;;;;4996375;28;20201;-67
2024/01/27 07:25:25;;;;;;;5.20;4.80;;;;;;;;;;5011867;28;20238;-67
2024/01/27 07:27:52;;;;;;;5.47;4.97;;;;;;;;;;5009522;28;20291;-67
2024/01/27 07:30:19;;;;;;;5.23;4.50;;;;;;;;;;5011597;28;20208;-67
2024/01/27 07:32:47;;;;;;;5.03;4.50;;;;;;;;;;5011854;28;20207;-67
2024/01/27 07:35:16;;;;;;;5.43;5.10;;;5.70;99.90;;;;;;5010102;28;20585;-68
2024/01/27 07:37:43;;;;;;;5.43;5.03;;;;;;;;;;5005502;28;20228;-67
2024/01/27 07:40:11;;;;;;;6.80;6.10;;;;;;;;;;5011455;28;20259;-67
2024/01/27 07:42:38;;;;;;;7.33;5.07;;;;;;;;;;5010688;28;20203;-68
2024/01/27 07:45:08;;;;;;;6.17;5.67;;;;;;;;;;5011331;28;20706;-67
2024/01/27 07:47:35;;;;;;;6.13;5.63;;;;;;;;;;5014543;28;20315;-67
2024/01/27 07:50:03;;;;;;;6.37;5.73;;;6.30;99.90;;;;;;5015278;28;20207;-67
2024/01/27 07:52:31;;;;;;;8.97;6.37;;;;;;;;;;5014685;28;20201;-68
2024/01/27 07:54:58;;;;;;;8.83;7.90;;;6.40;99.90;;;;;;5015421;28;20661;-68
2024/01/27 07:57:26;;;;;;;9.80;8.90;;;;;;;;;;5015501;28;20663;-67
2024/01/27 07:59:53;;;;;;;10.33;9.20;;;;;;;;;;5011221;28;20708;-68
2024/01/27 08:02:21;;;;;;;10.87;7.60;;;;;;;;;;5014108;28;20263;-67
2024/01/27 08:04:48;;;;;;;8.40;6.40;;;;;;;;;;5012647;28;20201;-67
2024/01/27 08:07:16;;;;;;;7.83;5.93;;;;;;;;;;5012920;28;20225;-67
2024/01/27 08:09:45;;;;;;;5.10;4.57;;;;;;;;;;5012409;28;20204;-67
2024/01/27 08:12:16;;;;;;;6.20;4.47;;;;;;;;;;5012955;28;20368;-67
2024/01/27 08:14:43;;;;;;;5.67;3.90;;;;;;;;;;5014224;28;20205;-67
2024/01/27 08:17:10;;;;;;;4.97;3.50;;;;;;;;;;5013292;28;20237;-66
2024/01/27 08:19:37;;;;;;;3.57;3.30;;;7.00;99.90;;;;;;5015110;28;20208;-67
2024/01/27 08:22:05;;;;;;;5.70;3.63;;;7.10;99.90;;;;;;5010064;28;20209;-67
2024/01/27 08:24:32;;;;;;;3.40;3.13;;;6.90;99.90;;;;;;5012643;28;20208;-68
2024/01/27 08:27:01;;;;;;;3.10;2.87;;;6.90;99.90;;;;;;5007534;28;20221;-66
2024/01/27 08:29:28;;;;;;;7.53;3.93;;;6.80;99.90;;;;;;5013116;28;20205;-67
2024/01/27 08:31:55;;;;;;;4.40;3.63;;;6.90;99.90;;;;;;5010733;28;20205;-67
2024/01/27 08:34:22;;;;;;;3.87;3.37;;;;;;;;;;5013228;28;20210;-67
2024/01/27 08:36:49;;;;;;;3.57;3.30;;;6.80;99.90;;;;;;5012288;28;20225;-68
2024/01/27 08:39:16;;;;;;;4.93;4.47;;;;;;;;;;5010684;28;20767;-68
2024/01/27 08:41:44;;;;;;;5.13;4.47;;;7.50;99.90;;;;;;5012122;28;20624;-68
2024/01/27 08:44:13;;;;;;;5.03;4.63;;;7.90;99.90;;;;;;5014148;28;20215;-68
2024/01/27 08:46:40;;;;;;;6.50;4.57;;;8.30;99.90;;;;;;5014141;28;20233;-68
2024/01/27 08:49:07;;;;;;;5.90;5.30;;;;;;;;;;5013006;28;20240;-67
2024/01/27 08:51:35;;;;;;;5.47;4.97;;;8.70;99.90;;;;;;5010673;28;20700;-67
2024/01/27 08:54:03;;;;;;;4.73;4.30;;;;;;;;;;5005742;28;20601;-68
2024/01/27 08:56:29;;;;;;;5.53;4.90;;;9.70;99.90;;;;;;5013690;28;20222;-68
2024/01/27 08:58:57;;;;;;;4.87;3.60;;;;;;;;;;5014351;28;20202;-66
2024/01/27 09:01:25;;;;;;;4.90;4.37;;;;;;;;;;4997893;28;20198;-66
2024/01/27 09:03:53;;;;;;;5.87;4.37;;;;;;;;;;5009886;28;20209;-68
2024/01/27 09:06:20;;;;;;;5.03;3.77;;;;;;;;;;5002014;28;20768;-68
2024/01/27 09:08:47;;;;;;;3.53;3.23;;;;;;;;;;5005377;28;20233;-67
2024/01/27 09:11:14;;;;;;;8.37;3.80;;;;;;;;;;5000193;28;20275;-68
2024/01/27 09:13:42;;;;;;;3.73;3.47;;;;;;;;;;5001450;28;20208;-67
2024/01/27 09:16:12;;;;;;;5.37;4.07;;;;;;;;;;5000739;28;20199;-67
2024/01/27 09:18:41;;;;;;;3.57;3.27;;;;;;;;;;5003667;28;20216;-67
2024/01/27 09:21:08;;;;;;;3.47;3.17;;;;;;;;;;5005250;28;20210;-67
2024/01/27 09:23:36;;;;;;;3.63;3.53;;;;;;;;;;5001145;28;20755;-67
2024/01/27 09:26:04;;;;;;;4.00;3.70;;;;;;;;;;5006253;28;20222;-67
2024/01/27 09:28:31;;;;;;;3.37;3.00;;;;;;;;;;4999150;28;20779;-67
2024/01/27 09:30:58;;;;;;;3.93;3.53;;;;;;;;;;5003788;28;20207;-66
2024/01/27 09:33:26;;;;;;;4.43;4.20;;;;;;;;;;5001026;28;20210;-67
2024/01/27 09:35:54;;;;;;;4.73;4.40;;;;;;;;;;5008387;28;20206;-67
2024/01/27 09:38:22;;;;;;;5.03;4.63;;;;;;;;;;5002180;28;20218;-68
2024/01/27 09:40:50;;;;;;;4.80;4.40;;;;;;;;;;5000291;28;20742;-67
2024/01/27 09:43:18;;;;;;;4.57;4.27;;;;;;;;;;5001582;28;20736;-68
2024/01/27 09:45:46;;;;;;;4.70;4.30;;;;;;;;;;5012315;28;20225;-67
2024/01/27 09:48:14;;;;;;;5.23;4.80;;;;;;;;;;5006071;28;20235;-67
2024/01/27 09:50:42;;;;;;;4.30;4.00;;;;;;;;;;4998214;28;20202;-68
2024/01/27 09:53:12;;;;;;;5.30;4.40;;;;;;;;;;5002303;28;20205;-67
2024/01/27 09:55:39;;;;;;;4.97;4.47;;;;;;;;;;5009571;28;20205;-67
2024/01/27 09:58:06;;;;;;;4.03;3.63;;;;;;;;;;5006380;28;20760;-68
2024/01/27 10:00:35;;;;;;;3.67;3.30;;;;;;;;;;5009254;28;20261;-67
2024/01/27 10:03:03;;;;;;;4.07;3.60;;;;;;;;;;5009335;28;20227;-67
2024/01/27 10:05:30;;;;;;;3.50;3.30;;;;;;;;;;5016262;28;20211;-67
2024/01/27 10:07:58;;;;;;;4.77;4.10;;;;;;;;;;5010345;28;20653;-67
2024/01/27 10:10:26;;;;;;;5.53;4.90;;;;;;;;;;5013402;28;20249;-67
2024/01/27 10:12:55;;;;;;;5.07;4.27;;;;;;;;;;5014343;28;20201;-64
2024/01/27 10:15:22;;;;;;;4.73;3.87;;;;;;;;;;5012655;28;20217;-67
2024/01/27 10:17:50;;;;;;;4.17;3.87;;;;;;;;;;5006415;28;20222;-67
2024/01/27 10:20:18;;;;;;;4.00;3.60;;;;;;;;;;5012771;28;20198;-67
2024/01/27 10:22:46;;;;;;;3.57;3.37;;;;;;;;;;5012267;28;20210;-68
2024/01/27 10:25:13;;;;;;;3.63;3.27;;;;;;;;;;5017181;28;20213;-68
2024/01/27 10:27:42;;;;;;;3.83;3.60;;;;;;;;;;5000563;28;20232;-67
2024/01/27 10:30:18;;;;;;;3.03;2.67;;;11.60;99.90;;;;;;5002309;28;20206;-68
2024/01/27 10:32:45;;;;;;;3.50;2.40;;;;;;;;;;5000417;28;20205;-67
2024/01/27 10:35:13;;;;;;;6.40;2.90;;;;;;;;;;5001677;28;20993;-66
2024/01/27 10:37:40;;;;;;;4.17;3.03;;;;;;;;;;5002125;28;20222;-68
2024/01/27 10:40:09;;;;;;;4.27;2.47;;;;;;;;;;5001558;28;20293;-67
2024/01/27 10:42:36;;;;;;;3.17;2.27;;;;;;;;;;4999078;28;20202;-66
2024/01/27 10:45:06;;;;;;;2.67;2.53;;;;;;;;;;5005270;28;20205;-67
2024/01/27 10:47:34;;;;;;;2.50;2.30;;;;;;;;;;5000669;28;21759;-68
2024/01/27 10:50:02;;;;;;;3.30;3.00;;;;;;;;;;5001279;28;20224;-68
2024/01/27 10:52:30;;;;;;;3.00;2.80;;;;;;;;;;5007921;28;20203;-67
2024/01/27 10:55:00;;;;;;;3.90;3.50;;;;;;;;;;5009450;28;20196;-68
2024/01/27 10:57:28;;;;;;;4.90;3.00;;;;;;;;;;5008106;28;20317;-68
2024/01/27 10:59:57;;;;;;;3.50;3.20;;;;;;;;;;5006305;28;20205;-68
2024/01/27 11:02:26;;;;;;;3.13;2.93;;;;;;;;;;5011449;28;20678;-68
2024/01/27 11:04:54;;;;;;;3.30;3.03;;;;;;;;;;5011069;28;20671;-68
2024/01/27 11:07:23;;;;;;;4.37;3.03;;;11.00;99.90;;;;;;5009342;28;20257;-67
2024/01/27 11:09:53;;;;;;;3.70;3.07;;;10.90;99.90;;;;;;5009177;28;20286;-67
2024/01/27 11:12:21;;;;;;;3.10;2.80;;;;;;;;;;5011041;28;20214;-68
2024/01/27 11:14:49;;;;;;;5.70;3.23;;;;;;;;;;5008379;28;20209;-67
2024/01/27 11:17:20;;;;;;;3.60;2.37;;;;;;;;;;5007835;28;20258;-68
2024/01/27 11:19:50;;;;;;;5.73;3.57;;;;;;;;;;5007592;28;20202;-67
2024/01/27 11:22:26;;;;;;;2.63;2.43;;;;;;;;;;5009053;28;20199;-66
2024/01/27 11:24:53;;;;;;;8.03;2.90;;;;;;;;;;5009376;28;20293;-68
2024/01/27 11:27:30;;;;;;;5.90;4.93;;;;;;;;;;5008805;28;20233;-68
2024/01/27 11:29:57;;;;;;;3.63;3.30;;;;;;;;;;5007841;28;20271;-67
2024/01/27 11:32:24;;;;;;;5.50;3.17;;;;;;;;;;5002579;28;20625;-68
2024/01/27 11:34:53;;;;;;;4.20;3.13;;;;;;;;;;5007598;28;20300;-67
2024/01/27 11:37:24;;;;;;;2.40;2.00;;;;;;;;;;5007533;28;20226;-68
2024/01/27 11:39:52;;;;;;;3.37;2.77;;;;;;;;;;5008625;28;20260;-68
2024/01/27 11:42:20;;;;;;;5.10;4.60;;;;;;;;;;5002456;28;20289;-68
2024/01/27 11:44:47;;;;;;;1.97;1.90;;;;;;;;;;5001293;28;20329;-69
2024/01/27 11:47:18;;;;;;;3.33;1.90;;;;;;;;;;5006293;28;20232;-69
2024/01/27 11:49:52;;;;;;;3.13;2.83;;;;;;;;;;5001498;28;20455;-67
2024/01/27 11:52:21;;;;;;;3.37;2.37;;;;;;;;;;5004825;28;21791;-64
2024/01/27 11:54:55;;;;;;;3.17;2.27;;;;;;;;;;4997648;28;20229;-65
2024/01/27 11:57:22;;;;;;;3.00;2.00;;;10.50;99.90;;;;;;5008988;28;20308;-65
2024/01/27 11:59:48;;;;;;;4.17;2.27;;;;;;;;;;5002721;28;20670;-66
2024/01/27 12:02:15;;;;;;;2.70;2.60;;;;;;;;;;5000263;28;20202;-66
2024/01/27 12:04:43;;;;;;;2.10;2.00;;;;;;;;;;5000104;28;20249;-68
2024/01/27 12:07:14;;;;;;;4.50;2.40;;;;;;;;;;5001216;28;20231;-66
2024/01/27 12:09:42;;;;;;;3.43;2.43;;;10.80;99.90;;;;;;5003748;28;20259;-68
2024/01/27 12:12:10;;;;;;;2.37;2.17;;;10.80;99.90;;;;;;4997449;28;20221;-68
2024/01/27 12:14:41;;;;;;;3.00;2.50;;;;;;;;;;5000934;28;20209;-68
2024/01/27 12:17:10;;;;;;;2.47;2.10;;;;;;;;;;5000536;28;20229;-66
2024/01/27 12:19:38;;;;;;;2.80;2.60;;;;;;;;;;4999620;28;20211;-70
2024/01/27 12:22:06;;;;;;;2.30;2.10;;;;;;;;;;5002102;28;20206;-66
2024/01/27 12:24:34;;;;;;;2.97;2.50;;;10.50;99.90;;;;;;5005402;28;20709;-64
2024/01/27 12:27:02;;;;;;;2.50;2.37;;;10.40;99.90;;;;;;4999551;28;20287;-65
2024/01/27 12:29:30;;;;;;;3.90;2.60;;;;;;;;;;5001005;28;20211;-66
2024/01/27 12:31:57;;;;;;;2.90;2.30;;;10.50;99.90;;;;;;5004431;28;20197;-65
2024/01/27 12:34:24;;;;;;;3.97;1.93;;;;;;;;;;5013504;28;20205;-67
2024/01/27 12:36:51;;;;;;;2.80;1.60;;;11.50;99.90;;;;;;5010821;28;20221;-62
2024/01/27 12:39:18;;;;;;;3.90;2.70;;;10.30;99.90;;;;;;5010470;28;20205;-62
2024/01/27 12:41:45;;;;;;;3.30;3.00;;;10.40;99.90;;;;;;5008469;28;20203;-62
2024/01/27 12:44:14;;;;;;;4.80;2.60;;;;;;;;;;5012783;28;20217;-62
2024/01/27 12:46:41;;;;;;;2.90;2.67;;;10.40;99.90;;;;;;5011931;28;20233;-62
2024/01/27 12:49:09;;;;;;;6.20;3.47;;;10.40;99.90;;;;;;5010675;28;20273;-62
2024/01/27 12:51:36;;;;;;;3.03;2.57;;;10.50;99.90;;;;;;5011425;28;20301;-62
2024/01/27 12:54:03;;;;;;;3.83;3.33;;;10.60;99.90;;;;;;5009788;28;20268;-62
2024/01/27 12:56:30;;;;;;;3.57;3.13;;;10.60;99.90;;;;;;5010839;28;20287;-62
2024/01/27 12:58:58;;;;;;;3.63;3.37;;;;;;;;;;5015669;28;20681;-62
2024/01/27 13:01:27;;;;;;;2.90;2.63;;;9.20;99.90;;;;;;5011442;28;20207;-63
2024/01/27 13:03:54;;;;;;;3.57;3.27;;;10.50;99.90;;;;;;5010585;28;20217;-62
2024/01/27 13:06:22;;;;;;;4.30;3.67;;;10.30;99.90;;;;;;5010163;28;20559;-62
2024/01/27 13:08:50;;;;;;;4.77;4.40;;;;;;;;;;5012854;28;20206;-65
2024/01/27 13:11:17;;;;;;;5.10;3.90;;;10.00;99.90;;;;;;5003938;28;20214;-63
2024/01/27 13:13:44;;;;;;;3.70;3.50;;;10.00;99.90;;;;;;5012142;28;20212;-64
2024/01/27 13:16:11;;;;;;;4.03;3.67;;;10.20;99.90;;;;;;5012478;28;20205;-64
2024/01/27 13:18:40;;;;;;;4.17;3.40;;;10.20;99.90;;;;;;5011263;28;20221;-65
2024/01/27 13:21:08;;;;;;;4.20;3.77;;;10.10;99.90;;;;;;5002038;28;20202;-65
2024/01/27 13:23:35;;;;;;;9.27;4.37;;;;;;;;;;5002223;28;20206;-65
2024/01/27 13:26:03;;;;;;;3.77;3.40;;;10.30;99.90;;;;;;4999994;28;20245;-66
2024/01/27 13:28:30;;;;;;;5.97;4.47;;;10.10;99.90;;;;;;5001969;28;20229;-65
2024/01/27 13:30:57;;;;;;;4.23;3.90;;;10.00;99.90;;;;;;5005735;28;20205;-66
2024/01/27 13:33:24;;;;;;;5.03;4.53;;;10.00;99.90;;;;;;5002564;28;20288;-65
2024/01/27 13:35:53;;;;;;;4.80;4.27;;;9.90;99.90;;;;;;5001958;28;20209;-63
2024/01/27 13:38:23;;;;;;;8.20;4.80;;;;;;;;;;5000656;28;20592;-66
2024/01/27 13:40:50;;;;;;;8.10;4.03;;;10.00;99.90;;;;;;5006090;28;20344;-65
2024/01/27 13:43:17;;;;;;;4.77;4.37;;;10.00;99.90;;;;;;5003735;28;20214;-65
2024/01/27 13:45:45;;;;;;;5.60;4.23;;;10.00;99.90;;;;;;5002647;28;20686;-65
2024/01/27 13:48:13;;;;;;;7.03;4.40;;;10.00;99.90;;;;;;5005091;28;20242;-65
2024/01/27 13:50:41;;;;;;;4.30;3.87;;;10.00;99.90;;;;;;4998791;28;20210;-65
2024/01/27 13:53:09;;;;;;;4.87;3.03;;;9.90;99.90;;;;;;5002708;28;20733;-65
2024/01/27 13:55:36;;;;;;;3.93;3.63;;;;;;;;;;4997017;28;20217;-65
2024/01/27 13:58:04;;;;;;;4.80;3.27;;;9.80;99.90;;;;;;4999747;28;20232;-65
2024/01/27 14:00:34;;;;;;;3.97;3.60;;;9.90;99.90;;;;;;5005636;28;20199;-65
2024/01/27 14:03:01;;;;;;;4.63;4.23;;;9.90;99.90;;;;;;5010162;28;20213;-65
2024/01/27 14:05:29;;;;;;;4.67;3.80;;;;;;;;;;5009480;28;20202;-65
2024/01/27 14:07:57;;;;;;;7.60;4.00;;;9.80;99.90;;;;;;5007126;28;20222;-65
2024/01/27 14:10:25;;;;;;;3.20;2.90;;;9.90;99.90;;;;;;5002632;28;20199;-64
2024/01/27 14:12:52;;;;;;;3.80;3.50;;;9.80;99.90;;;;;;4999854;28;20666;-65
2024/01/27 14:15:20;;;;;;;2.87;2.67;;;9.80;99.90;;;;;;5001995;28;20202;-65